Main page
METAR-TAF:

METAR-TAF

Airports :

Agen, France

Agen La Garenne Airport

latitude: 44-11N, longitude: 000-36E, elevation: 61 m

Current weather observation

The report was made 44 minutes ago, at 16:00 UTC
Wind 9 kt from the West/Northwest, varying between West and North/Northwest
Temperature 25°C
Humidity 54%
Pressure 1015 hPa
Visibility 10 km or more
no clouds below 1500 m and no cumulonimbus

METAR: LFBA 221600Z AUTO 30009KT 270V340 CAVOK 25/15 Q1015 NOSIG

Time: 18:44 (16:44 UTC)

Forecast

The report was made 2 hours and 44 minutes ago, at 14:00 UTC
Forecast valid from 22 at 15 UTC to 22 at 24 UTC
Wind 2 kt from variable directions
Visibility 10 km or more
Scattered clouds at a height of 4500 ft

TAF: LFBA 221400Z 2215/2224 VRB02KT 9999 SCT045

Weather observations and forecasts of more than 4000 airports (METAR and TAF reports).

The available stations are represented by yellow and red dots on the map.

Hover mouse over dot to see the name of the station.

Then click to see weather observations and forecasts.

To change the map : click on the green buttons with a black cross to zoom in, on the green button with a dash to zoom out, or on the green arrows for adjacent maps.


METAR-TAF: